createdAt,value
2023-04-19T00:08:07.701Z,11.8
2023-04-19T00:27:20.266Z,11.8
2023-04-19T00:46:32.813Z,11.8
2023-04-19T01:05:44.817Z,11.7
2023-04-19T01:24:56.716Z,11.5
2023-04-19T01:44:07.854Z,11.6
2023-04-19T02:03:20.425Z,11.5
2023-04-19T02:22:32.386Z,11.1
2023-04-19T02:41:43.993Z,10.9
2023-04-19T03:00:58.306Z,10.6
2023-04-19T03:20:10.812Z,10.5
2023-04-19T03:39:24.197Z,10.6
2023-04-19T03:58:35.413Z,10.6
2023-04-19T04:17:47.943Z,10.7
2023-04-19T04:36:59.833Z,10.7
2023-04-19T04:56:12.944Z,10.8
2023-04-19T05:15:25.690Z,10.8
2023-04-19T05:34:36.526Z,11
2023-04-19T05:53:48.474Z,10.8
2023-04-19T06:13:03.485Z,10.9
2023-04-19T06:32:15.627Z,10.9
2023-04-19T06:51:27.031Z,11.3
2023-04-19T07:10:40.368Z,11.8
2023-04-19T07:29:54.942Z,12.2
2023-04-19T07:49:21.325Z,16.8
2023-04-19T08:08:39.431Z,17.9
2023-04-19T08:27:48.047Z,18
2023-04-19T08:47:01.731Z,19.7
2023-04-19T09:06:09.012Z,20.1
2023-04-19T09:25:37.584Z,19.1
2023-04-19T09:45:02.047Z,17.3
2023-04-19T10:04:14.781Z,17.1
2023-04-19T10:23:45.839Z,16.8
2023-04-19T10:42:58.042Z,16.9
2023-04-19T11:02:08.304Z,17.4
2023-04-19T11:21:20.007Z,17.7
2023-04-19T11:40:28.560Z,17
2023-04-19T11:59:36.732Z,17.3
2023-04-19T12:18:47.998Z,17
2023-04-19T12:37:57.361Z,17.1
2023-04-19T12:57:06.980Z,16.5
2023-04-19T13:16:19.690Z,16.8
2023-04-19T13:35:33.207Z,16.6
2023-04-19T13:54:43.819Z,16.9
2023-04-19T14:13:52.964Z,16.5
2023-04-19T14:33:04.532Z,16.4
2023-04-19T14:52:12.339Z,15.9
2023-04-19T15:11:23.535Z,15.5
2023-04-19T15:30:36.594Z,15.8
2023-04-19T15:49:43.673Z,15.4
2023-04-19T16:08:55.923Z,15.3
2023-04-19T16:28:05.394Z,15
2023-04-19T16:47:13.994Z,15
2023-04-19T17:06:24.966Z,14.4
2023-04-19T17:25:33.391Z,14.6
2023-04-19T17:44:42.904Z,13.9
2023-04-19T18:03:53.442Z,13.4
2023-04-19T18:23:02.044Z,12.5
2023-04-19T18:42:11.916Z,12
2023-04-19T19:01:25.128Z,11.6
2023-04-19T19:20:29.206Z,11.3
2023-04-19T19:39:36.459Z,10.3
2023-04-19T19:58:51.307Z,10.1
2023-04-19T20:17:56.096Z,9.5
2023-04-19T20:37:05.287Z,9.2
2023-04-19T20:56:15.662Z,9.1
2023-04-19T21:15:28.385Z,8.5
2023-04-19T21:34:39.028Z,8.4
2023-04-19T21:53:50.588Z,8.3
2023-04-19T22:12:59.341Z,8.4
2023-04-19T22:32:10.373Z,8.2
2023-04-19T22:51:21.054Z,8.2
2023-04-19T23:10:28.880Z,8
2023-04-19T23:29:38.873Z,8.3
2023-04-19T23:48:48.649Z,7.8
